Skamania, Washington
Current Conditions -  °F | °C
As of 1:39 AM on Monday 22 Dec 2014 (Local Time) from K4S2 Reporting Station
Drizzle Drizzle  
Wind Chill: 46°   Ceiling: 900
Heat Index: 46°   Visibility: 4mi
Dew Point: 46°   Wind: 0mph
Humidity: 100%   Direction: NA
Pressure: 30.17"   Gusts: NA
Location:  46.0755°N, 121.895°W
Report Text: K4S2 220939Z AUTO 00000KT 4SM DZ SCT003 BKN009 OVC017 08/08 A3017 RMK AO2 P0002 SLPNO
Loading
Personal Weather Stations






























Interactive Weather Map New forecast layout! Learn more

10-Day Weather Forecast

Advertisements
Track Severe Weather on mobile